WMT7Y LRIA-EDSB
Flight info
| Callsign | WMT7Y |
|---|---|
| Flight time | N/A |
| Altitude | 38000 |
| Route | ARPIG P133 TOMUC DCT HUMOR DCT IZDUW DCT TEKNO DCT ABETI DCT LIMRA DCT SBG DCT TITIG DCT OTT L173 LBU Z729 KRH |
| Aircraft | A320/M-SDE3FGHIRWY/LB1 |
Departure
| Time | 2026-04-24 08:54 |
|---|---|
| Airport | Iaşi International Airport (LRIA) |
Arrival
| Time | N/A |
|---|---|
| Airport | Karlsruhe Baden-Baden Airport (EDSB) |
| Time | Latitude | Longitude | Altitude | Speed | Heading |
|---|---|---|---|---|---|
| 2026-04-24 08:22 | 47.17527 | 27.61976 | 357 ft | 0 kts | 273° |
| 2026-04-24 08:46 | 47.17527 | 27.61986 | 357 ft | 2 kts | 273° |
| 2026-04-24 08:46 | 47.17527 | 27.62008 | 356 ft | 2 kts | 255° |
| 2026-04-24 08:47 | 47.17532 | 27.62029 | 356 ft | 2 kts | 239° |
| 2026-04-24 08:47 | 47.17543 | 27.62044 | 356 ft | 2 kts | 202° |
| 2026-04-24 08:47 | 47.17559 | 27.62048 | 356 ft | 2 kts | 169° |
| 2026-04-24 08:47 | 47.17572 | 27.62039 | 357 ft | 2 kts | 149° |
| 2026-04-24 08:48 | 47.17579 | 27.62034 | 357 ft | 0 kts | 156° |
| 2026-04-24 08:50 | 47.17548 | 27.62056 | 356 ft | 11 kts | 154° |
| 2026-04-24 08:50 | 47.17453 | 27.62134 | 351 ft | 17 kts | 149° |
| 2026-04-24 08:50 | 47.17348 | 27.62226 | 346 ft | 15 kts | 149° |
| 2026-04-24 08:50 | 47.17276 | 27.62294 | 343 ft | 10 kts | 136° |
| 2026-04-24 08:51 | 47.17265 | 27.62388 | 341 ft | 9 kts | 60° |
| 2026-04-24 08:51 | 47.17306 | 27.62484 | 341 ft | 11 kts | 58° |
| 2026-04-24 08:51 | 47.17351 | 27.62594 | 339 ft | 11 kts | 60° |
| 2026-04-24 08:51 | 47.17333 | 27.62706 | 337 ft | 14 kts | 144° |
| 2026-04-24 08:52 | 47.17247 | 27.62783 | 332 ft | 12 kts | 148° |
| 2026-04-24 08:52 | 47.17189 | 27.62874 | 328 ft | 12 kts | 119° |
| 2026-04-24 08:52 | 47.17140 | 27.62948 | 325 ft | 6 kts | 163° |
| 2026-04-24 08:52 | 47.17116 | 27.62915 | 325 ft | 4 kts | 263° |
| 2026-04-24 08:53 | 47.17128 | 27.62890 | 326 ft | 1 kts | 328° |
| 2026-04-24 08:53 | 47.17129 | 27.62889 | 326 ft | 1 kts | 327° |
| 2026-04-24 08:54 | 47.17323 | 27.62717 | 337 ft | 65 kts | 329° |
| 2026-04-24 08:54 | 47.17894 | 27.62209 | 364 ft | 123 kts | 328° |
| 2026-04-24 08:54 | 47.18724 | 27.61480 | 635 ft | 148 kts | 328° |
| 2026-04-24 08:54 | 47.19617 | 27.60765 | 1261 ft | 148 kts | 329° |
| 2026-04-24 08:55 | 47.20526 | 27.60110 | 1927 ft | 146 kts | 331° |
| 2026-04-24 08:55 | 47.21406 | 27.59462 | 2556 ft | 143 kts | 333° |
| 2026-04-24 08:55 | 47.22288 | 27.58829 | 3132 ft | 143 kts | 333° |
| 2026-04-24 08:55 | 47.23167 | 27.58171 | 3674 ft | 146 kts | 332° |
| 2026-04-24 08:56 | 47.24048 | 27.57324 | 4054 ft | 160 kts | 316° |
| 2026-04-24 08:56 | 47.24706 | 27.55880 | 4440 ft | 180 kts | 295° |
| 2026-04-24 08:56 | 47.25081 | 27.54031 | 4791 ft | 201 kts | 294° |
| 2026-04-24 08:56 | 47.25703 | 27.52110 | 5287 ft | 216 kts | 300° |
| 2026-04-24 08:57 | 47.26403 | 27.50092 | 5784 ft | 234 kts | 300° |
| 2026-04-24 08:57 | 47.27174 | 27.47912 | 6398 ft | 247 kts | 300° |
| 2026-04-24 08:57 | 47.27978 | 27.45664 | 7261 ft | 250 kts | 300° |
| 2026-04-24 08:57 | 47.28796 | 27.43395 | 8127 ft | 253 kts | 300° |
| 2026-04-24 08:58 | 47.29617 | 27.41133 | 8979 ft | 256 kts | 301° |
| 2026-04-24 08:58 | 47.30461 | 27.38807 | 9778 ft | 259 kts | 301° |
| 2026-04-24 08:58 | 47.31308 | 27.36482 | 10498 ft | 264 kts | 301° |
| 2026-04-24 08:58 | 47.32189 | 27.34067 | 11050 ft | 274 kts | 301° |
| 2026-04-24 08:59 | 47.33099 | 27.31568 | 11764 ft | 278 kts | 301° |
| 2026-04-24 08:59 | 47.34013 | 27.29049 | 12507 ft | 280 kts | 302° |
| 2026-04-24 08:59 | 47.34929 | 27.26530 | 13226 ft | 282 kts | 302° |
| 2026-04-24 08:59 | 47.35855 | 27.23981 | 13937 ft | 283 kts | 302° |
| 2026-04-24 09:00 | 47.36782 | 27.21427 | 14632 ft | 285 kts | 302° |
| 2026-04-24 09:00 | 47.37708 | 27.18871 | 15260 ft | 288 kts | 303° |
| 2026-04-24 09:00 | 47.38660 | 27.16242 | 15877 ft | 291 kts | 303° |
| 2026-04-24 09:00 | 47.39611 | 27.13615 | 16466 ft | 294 kts | 303° |
| 2026-04-24 09:01 | 47.40575 | 27.10955 | 17068 ft | 296 kts | 304° |
| 2026-04-24 09:01 | 47.41552 | 27.08245 | 17659 ft | 298 kts | 304° |
| 2026-04-24 09:01 | 47.42525 | 27.05547 | 18208 ft | 302 kts | 304° |
| 2026-04-24 09:01 | 47.43505 | 27.02834 | 18780 ft | 304 kts | 304° |
| 2026-04-24 09:02 | 47.44498 | 27.00076 | 19354 ft | 306 kts | 305° |
| 2026-04-24 09:02 | 47.45502 | 26.97282 | 19887 ft | 309 kts | 305° |
| 2026-04-24 09:02 | 47.46509 | 26.94484 | 20422 ft | 311 kts | 305° |
| 2026-04-24 09:02 | 47.47535 | 26.91624 | 20927 ft | 315 kts | 306° |
| 2026-04-24 09:03 | 47.48559 | 26.88767 | 21436 ft | 318 kts | 306° |
| 2026-04-24 09:03 | 47.49580 | 26.85885 | 21915 ft | 322 kts | 303° |
| 2026-04-24 09:03 | 47.50344 | 26.82833 | 22380 ft | 334 kts | 294° |
| 2026-04-24 09:03 | 47.50753 | 26.79427 | 22845 ft | 346 kts | 284° |
| 2026-04-24 09:04 | 47.50853 | 26.75816 | 23269 ft | 353 kts | 281° |
| 2026-04-24 09:04 | 47.50892 | 26.72184 | 23712 ft | 357 kts | 281° |
| 2026-04-24 09:04 | 47.50921 | 26.68538 | 24149 ft | 359 kts | 281° |
| 2026-04-24 09:04 | 47.50951 | 26.64808 | 24562 ft | 362 kts | 281° |
| 2026-04-24 09:05 | 47.50985 | 26.61084 | 24970 ft | 366 kts | 281° |
| 2026-04-24 09:05 | 47.51017 | 26.57307 | 25362 ft | 369 kts | 281° |
| 2026-04-24 09:05 | 47.51050 | 26.53506 | 25794 ft | 371 kts | 282° |
| 2026-04-24 09:05 | 47.51084 | 26.49680 | 26171 ft | 374 kts | 282° |
| 2026-04-24 09:06 | 47.51115 | 26.45956 | 26586 ft | 376 kts | 282° |
| 2026-04-24 09:06 | 47.51148 | 26.42044 | 26975 ft | 379 kts | 282° |
| 2026-04-24 09:06 | 47.51179 | 26.38147 | 27331 ft | 382 kts | 282° |
| 2026-04-24 09:06 | 47.51210 | 26.34203 | 27692 ft | 385 kts | 281° |
| 2026-04-24 09:07 | 47.51241 | 26.30255 | 27995 ft | 389 kts | 281° |
| 2026-04-24 09:07 | 47.51270 | 26.26229 | 28337 ft | 392 kts | 281° |
| 2026-04-24 09:07 | 47.51320 | 26.18098 | 29056 ft | 397 kts | 282° |
| 2026-04-24 09:08 | 47.51345 | 26.14046 | 29343 ft | 400 kts | 282° |
| 2026-04-24 09:08 | 47.51371 | 26.09931 | 29684 ft | 403 kts | 282° |
| 2026-04-24 09:08 | 47.51395 | 26.05743 | 29964 ft | 406 kts | 282° |
| 2026-04-24 09:08 | 47.51415 | 26.01562 | 30277 ft | 409 kts | 282° |
| 2026-04-24 09:09 | 47.51432 | 25.97356 | 30589 ft | 411 kts | 282° |
| 2026-04-24 09:09 | 47.51450 | 25.93176 | 30950 ft | 412 kts | 282° |
| 2026-04-24 09:09 | 47.51467 | 25.88942 | 31230 ft | 415 kts | 281° |
| 2026-04-24 09:09 | 47.51398 | 25.84631 | 31547 ft | 420 kts | 279° |
| 2026-04-24 09:10 | 47.51287 | 25.80314 | 31863 ft | 422 kts | 279° |
| 2026-04-24 09:10 | 47.51170 | 25.75982 | 32124 ft | 425 kts | 278° |
| 2026-04-24 09:10 | 47.51049 | 25.71613 | 32418 ft | 426 kts | 278° |
| 2026-04-24 09:10 | 47.50928 | 25.67257 | 32682 ft | 429 kts | 278° |
| 2026-04-24 09:11 | 47.50804 | 25.62860 | 32941 ft | 431 kts | 278° |
| 2026-04-24 09:11 | 47.50677 | 25.58449 | 33261 ft | 431 kts | 278° |
| 2026-04-24 09:11 | 47.50548 | 25.53966 | 33504 ft | 434 kts | 278° |
| 2026-04-24 09:11 | 47.50419 | 25.49510 | 33760 ft | 435 kts | 278° |
| 2026-04-24 09:12 | 47.50286 | 25.45057 | 34118 ft | 434 kts | 278° |
| 2026-04-24 09:12 | 47.50151 | 25.40635 | 34468 ft | 433 kts | 278° |
| 2026-04-24 09:12 | 47.50016 | 25.36216 | 34824 ft | 432 kts | 278° |
| 2026-04-24 09:12 | 47.49881 | 25.31771 | 35121 ft | 430 kts | 277° |
| 2026-04-24 09:13 | 47.49746 | 25.27350 | 35350 ft | 430 kts | 277° |
| 2026-04-24 09:13 | 47.49616 | 25.23135 | 35546 ft | 431 kts | 277° |
| 2026-04-24 09:13 | 47.49475 | 25.18703 | 35767 ft | 431 kts | 277° |
| 2026-04-24 09:13 | 47.49336 | 25.14310 | 35981 ft | 431 kts | 276° |
| 2026-04-24 09:14 | 47.49196 | 25.10025 | 36177 ft | 431 kts | 276° |
| 2026-04-24 09:14 | 47.49050 | 25.05548 | 36345 ft | 432 kts | 276° |
| 2026-04-24 09:14 | 47.48905 | 25.01153 | 36496 ft | 433 kts | 276° |
| 2026-04-24 09:14 | 47.48756 | 24.96695 | 36647 ft | 434 kts | 276° |
| 2026-04-24 09:15 | 47.48605 | 24.92241 | 36820 ft | 435 kts | 276° |
| 2026-04-24 09:15 | 47.48449 | 24.87743 | 37039 ft | 436 kts | 275° |
| 2026-04-24 09:15 | 47.48296 | 24.83322 | 37250 ft | 436 kts | 275° |
| 2026-04-24 09:15 | 47.48137 | 24.78865 | 37455 ft | 436 kts | 275° |
| 2026-04-24 09:16 | 47.47977 | 24.74377 | 37648 ft | 437 kts | 275° |
| 2026-04-24 09:16 | 47.47815 | 24.69857 | 37812 ft | 438 kts | 275° |
| 2026-04-24 09:16 | 47.47654 | 24.65415 | 37925 ft | 440 kts | 275° |
| 2026-04-24 09:16 | 47.47488 | 24.60903 | 37937 ft | 441 kts | 275° |
| 2026-04-24 09:17 | 47.47149 | 24.51871 | 37947 ft | 441 kts | 275° |
| 2026-04-24 09:17 | 47.46802 | 24.42819 | 37957 ft | 440 kts | 275° |
| 2026-04-24 09:18 | 47.46458 | 24.33962 | 37945 ft | 442 kts | 274° |
| 2026-04-24 09:18 | 47.46111 | 24.25171 | 37939 ft | 442 kts | 274° |
| 2026-04-24 09:19 | 47.45743 | 24.16125 | 37945 ft | 441 kts | 274° |
| 2026-04-24 09:19 | 47.45370 | 24.07070 | 37955 ft | 441 kts | 274° |
| 2026-04-24 09:20 | 47.44989 | 23.98011 | 37970 ft | 442 kts | 274° |
| 2026-04-24 09:20 | 47.44604 | 23.89011 | 37993 ft | 442 kts | 274° |
| 2026-04-24 09:21 | 47.44208 | 23.79937 | 37989 ft | 442 kts | 274° |
| 2026-04-24 09:21 | 47.43805 | 23.70888 | 37995 ft | 442 kts | 274° |
| 2026-04-24 09:22 | 47.43401 | 23.61933 | 37999 ft | 442 kts | 274° |
| 2026-04-24 09:22 | 47.42983 | 23.52839 | 38000 ft | 443 kts | 274° |
| 2026-04-24 09:23 | 47.42560 | 23.43785 | 38000 ft | 443 kts | 273° |
| 2026-04-24 09:23 | 47.42131 | 23.34746 | 38004 ft | 443 kts | 272° |
| 2026-04-24 09:24 | 47.41691 | 23.25674 | 38001 ft | 444 kts | 272° |
| 2026-04-24 09:24 | 47.41267 | 23.17052 | 37996 ft | 444 kts | 272° |
| 2026-04-24 09:25 | 47.40827 | 23.08225 | 37997 ft | 444 kts | 272° |
| 2026-04-24 09:25 | 47.40366 | 22.99135 | 38004 ft | 444 kts | 272° |
| 2026-04-24 09:26 | 47.39899 | 22.90069 | 38005 ft | 445 kts | 272° |
| 2026-04-24 09:26 | 47.39420 | 22.80933 | 38011 ft | 445 kts | 272° |
| 2026-04-24 09:27 | 47.38937 | 22.71873 | 38011 ft | 446 kts | 272° |
| 2026-04-24 09:27 | 47.38449 | 22.62816 | 38017 ft | 445 kts | 272° |
| 2026-04-24 09:28 | 47.37952 | 22.53715 | 38018 ft | 446 kts | 272° |
| 2026-04-24 09:28 | 47.37445 | 22.44596 | 38018 ft | 446 kts | 272° |
| 2026-04-24 09:29 | 47.36936 | 22.35543 | 38019 ft | 446 kts | 272° |
| 2026-04-24 09:29 | 47.36415 | 22.26400 | 38023 ft | 447 kts | 271° |
| 2026-04-24 09:30 | 47.35829 | 22.16285 | 38031 ft | 447 kts | 271° |
| 2026-04-24 09:30 | 47.35394 | 22.08857 | 38034 ft | 448 kts | 271° |
| 2026-04-24 09:31 | 47.34851 | 21.99691 | 38033 ft | 448 kts | 272° |
| 2026-04-24 09:31 | 47.34705 | 21.90662 | 38030 ft | 442 kts | 279° |
| 2026-04-24 09:32 | 47.35238 | 21.81673 | 38031 ft | 437 kts | 283° |
| 2026-04-24 09:32 | 47.35968 | 21.72786 | 38032 ft | 438 kts | 284° |
| 2026-04-24 09:33 | 47.36689 | 21.63890 | 38031 ft | 439 kts | 284° |
| 2026-04-24 09:33 | 47.37397 | 21.54978 | 38033 ft | 439 kts | 283° |
| 2026-04-24 09:34 | 47.38099 | 21.46033 | 38031 ft | 441 kts | 283° |
| 2026-04-24 09:34 | 47.38791 | 21.37102 | 38026 ft | 440 kts | 283° |
| 2026-04-24 09:35 | 47.39462 | 21.28348 | 38025 ft | 440 kts | 283° |
| 2026-04-24 09:35 | 47.40137 | 21.19458 | 38026 ft | 441 kts | 283° |
| 2026-04-24 09:36 | 47.40810 | 21.10486 | 38024 ft | 440 kts | 283° |
| 2026-04-24 09:36 | 47.41476 | 21.01520 | 38022 ft | 441 kts | 283° |
| 2026-04-24 09:37 | 47.42137 | 20.92521 | 38022 ft | 441 kts | 283° |
| 2026-04-24 09:37 | 47.42787 | 20.83569 | 38022 ft | 441 kts | 283° |
| 2026-04-24 09:38 | 47.43433 | 20.74599 | 38019 ft | 442 kts | 283° |
| 2026-04-24 09:38 | 47.44072 | 20.65619 | 38019 ft | 442 kts | 283° |
| 2026-04-24 09:39 | 47.44702 | 20.56636 | 38018 ft | 441 kts | 283° |
| 2026-04-24 09:39 | 47.45330 | 20.47609 | 38018 ft | 442 kts | 283° |
| 2026-04-24 09:40 | 47.45952 | 20.38574 | 38020 ft | 443 kts | 283° |
| 2026-04-24 09:40 | 47.46561 | 20.29593 | 38021 ft | 443 kts | 282° |
| 2026-04-24 09:41 | 47.47127 | 20.21151 | 38017 ft | 444 kts | 282° |
| 2026-04-24 09:41 | 47.47729 | 20.12083 | 38017 ft | 443 kts | 282° |
| 2026-04-24 09:42 | 47.48323 | 20.03025 | 38015 ft | 443 kts | 282° |
| 2026-04-24 09:42 | 47.48909 | 19.93975 | 38014 ft | 444 kts | 282° |
| 2026-04-24 09:43 | 47.49492 | 19.84844 | 38017 ft | 444 kts | 282° |
| 2026-04-24 09:43 | 47.50044 | 19.76120 | 38020 ft | 444 kts | 282° |
| 2026-04-24 09:44 | 47.50610 | 19.67029 | 38022 ft | 444 kts | 282° |
| 2026-04-24 09:44 | 47.51168 | 19.57952 | 38024 ft | 443 kts | 282° |
| 2026-04-24 09:45 | 47.51719 | 19.48891 | 38029 ft | 444 kts | 282° |
| 2026-04-24 09:45 | 47.52266 | 19.39799 | 38035 ft | 444 kts | 282° |
| 2026-04-24 09:46 | 47.52803 | 19.30707 | 38037 ft | 444 kts | 281° |
| 2026-04-24 09:46 | 47.53340 | 19.21526 | 38040 ft | 445 kts | 281° |
| 2026-04-24 09:47 | 47.53862 | 19.12432 | 38043 ft | 444 kts | 281° |
| 2026-04-24 09:47 | 47.54380 | 19.03316 | 38040 ft | 445 kts | 281° |
| 2026-04-24 09:48 | 47.54890 | 18.94194 | 38044 ft | 445 kts | 281° |
| 2026-04-24 09:48 | 47.55394 | 18.85032 | 38047 ft | 445 kts | 281° |
| 2026-04-24 09:49 | 47.55895 | 18.75829 | 38046 ft | 446 kts | 281° |
| 2026-04-24 09:49 | 47.56383 | 18.66693 | 38052 ft | 446 kts | 281° |
| 2026-04-24 09:50 | 47.56865 | 18.57555 | 38048 ft | 445 kts | 281° |
| 2026-04-24 09:50 | 47.57338 | 18.48451 | 38048 ft | 444 kts | 281° |
| 2026-04-24 09:51 | 47.57806 | 18.39335 | 38156 ft | 444 kts | 281° |
| 2026-04-24 09:51 | 47.58264 | 18.30234 | 38072 ft | 444 kts | 280° |
| 2026-04-24 09:52 | 47.58696 | 18.21494 | 38065 ft | 445 kts | 280° |
| 2026-04-24 09:52 | 47.59145 | 18.12290 | 38067 ft | 445 kts | 280° |
| 2026-04-24 09:53 | 47.59584 | 18.03147 | 38072 ft | 444 kts | 280° |
| 2026-04-24 09:53 | 47.60014 | 17.94021 | 38079 ft | 444 kts | 280° |
| 2026-04-24 09:54 | 47.60436 | 17.84917 | 38085 ft | 445 kts | 280° |
| 2026-04-24 09:54 | 47.60853 | 17.75766 | 38085 ft | 445 kts | 280° |
| 2026-04-24 09:55 | 47.61261 | 17.66646 | 38085 ft | 445 kts | 280° |
| 2026-04-24 09:55 | 47.61664 | 17.57485 | 38086 ft | 445 kts | 280° |
| 2026-04-24 09:56 | 47.62056 | 17.48368 | 38084 ft | 444 kts | 280° |
| 2026-04-24 09:56 | 47.62651 | 17.39284 | 38080 ft | 441 kts | 285° |
| 2026-04-24 09:57 | 47.63795 | 17.30413 | 38081 ft | 439 kts | 288° |
| 2026-04-24 09:57 | 47.65003 | 17.21692 | 38079 ft | 439 kts | 288° |
| 2026-04-24 09:58 | 47.66219 | 17.12799 | 38076 ft | 440 kts | 288° |
| 2026-04-24 09:58 | 47.67318 | 17.03897 | 38076 ft | 442 kts | 285° |
| 2026-04-24 09:59 | 47.68243 | 16.94891 | 38079 ft | 441 kts | 285° |
| 2026-04-24 09:59 | 47.69172 | 16.85860 | 38079 ft | 441 kts | 285° |
| 2026-04-24 10:00 | 47.70103 | 16.76868 | 38081 ft | 441 kts | 285° |
| 2026-04-24 10:00 | 47.71027 | 16.67922 | 38083 ft | 441 kts | 285° |
| 2026-04-24 10:01 | 47.71952 | 16.58913 | 38084 ft | 440 kts | 285° |
| 2026-04-24 10:01 | 47.72867 | 16.49927 | 38086 ft | 441 kts | 285° |
| 2026-04-24 10:02 | 47.73776 | 16.40927 | 38083 ft | 441 kts | 285° |
| 2026-04-24 10:02 | 47.74677 | 16.31955 | 38083 ft | 441 kts | 284° |
| 2026-04-24 10:03 | 47.75574 | 16.22923 | 38085 ft | 442 kts | 284° |
| 2026-04-24 10:03 | 47.76466 | 16.13886 | 38089 ft | 442 kts | 284° |
| 2026-04-24 10:04 | 47.77349 | 16.04865 | 38090 ft | 441 kts | 284° |
| 2026-04-24 10:04 | 47.78223 | 15.95838 | 38087 ft | 441 kts | 284° |
| 2026-04-24 10:05 | 47.79089 | 15.86837 | 38089 ft | 441 kts | 284° |
| 2026-04-24 10:05 | 47.79952 | 15.77801 | 38100 ft | 441 kts | 284° |
| 2026-04-24 10:06 | 47.81229 | 15.64258 | 38100 ft | 442 kts | 284° |
| 2026-04-24 10:07 | 47.82072 | 15.55233 | 38105 ft | 442 kts | 284° |
| 2026-04-24 10:07 | 47.82908 | 15.46196 | 38101 ft | 442 kts | 284° |
| 2026-04-24 10:08 | 47.83740 | 15.37118 | 38106 ft | 441 kts | 284° |
| 2026-04-24 10:08 | 47.84560 | 15.28112 | 38104 ft | 441 kts | 283° |
| 2026-04-24 10:09 | 47.85375 | 15.19060 | 38106 ft | 441 kts | 283° |
| 2026-04-24 10:09 | 47.86180 | 15.10038 | 38116 ft | 441 kts | 283° |
| 2026-04-24 10:10 | 47.86982 | 15.00974 | 38125 ft | 442 kts | 283° |
| 2026-04-24 10:10 | 47.87778 | 14.91885 | 38134 ft | 441 kts | 283° |
| 2026-04-24 10:11 | 47.88563 | 14.82847 | 38132 ft | 441 kts | 283° |
| 2026-04-24 10:11 | 47.89345 | 14.73750 | 38131 ft | 441 kts | 283° |
| 2026-04-24 10:12 | 47.90119 | 14.64683 | 38139 ft | 441 kts | 283° |
| 2026-04-24 10:12 | 47.90879 | 14.55662 | 38138 ft | 440 kts | 283° |
| 2026-04-24 10:13 | 47.91640 | 14.46548 | 38147 ft | 441 kts | 283° |
| 2026-04-24 10:13 | 47.92390 | 14.37494 | 38141 ft | 441 kts | 283° |
| 2026-04-24 10:14 | 47.93123 | 14.28569 | 38150 ft | 441 kts | 282° |
| 2026-04-24 10:14 | 47.93859 | 14.19484 | 38144 ft | 441 kts | 282° |
| 2026-04-24 10:15 | 47.94588 | 14.10410 | 38146 ft | 441 kts | 282° |
| 2026-04-24 10:15 | 47.95304 | 14.01400 | 38147 ft | 441 kts | 282° |
| 2026-04-24 10:16 | 47.96020 | 13.92312 | 38142 ft | 441 kts | 282° |
| 2026-04-24 10:16 | 47.96728 | 13.83237 | 38143 ft | 441 kts | 282° |
| 2026-04-24 10:17 | 47.97435 | 13.74082 | 38061 ft | 441 kts | 281° |
| 2026-04-24 10:17 | 47.97781 | 13.69546 | 37752 ft | 441 kts | 281° |
| 2026-04-24 10:17 | 47.98122 | 13.65056 | 37453 ft | 441 kts | 281° |
| 2026-04-24 10:17 | 47.98468 | 13.60492 | 37152 ft | 441 kts | 281° |
| 2026-04-24 10:18 | 47.98812 | 13.55926 | 36843 ft | 442 kts | 281° |
| 2026-04-24 10:18 | 47.99153 | 13.51370 | 36539 ft | 443 kts | 281° |
| 2026-04-24 10:18 | 47.99493 | 13.46810 | 36236 ft | 444 kts | 281° |
| 2026-04-24 10:18 | 47.99833 | 13.42240 | 35937 ft | 445 kts | 281° |
| 2026-04-24 10:19 | 48.00171 | 13.37642 | 35632 ft | 446 kts | 281° |
| 2026-04-24 10:19 | 48.00510 | 13.33015 | 35321 ft | 447 kts | 280° |
| 2026-04-24 10:19 | 48.00844 | 13.28434 | 35023 ft | 448 kts | 280° |
| 2026-04-24 10:19 | 48.01182 | 13.23750 | 34717 ft | 447 kts | 280° |
| 2026-04-24 10:20 | 48.01510 | 13.19169 | 34411 ft | 445 kts | 280° |
| 2026-04-24 10:20 | 48.01837 | 13.14584 | 34173 ft | 443 kts | 280° |
| 2026-04-24 10:20 | 48.02164 | 13.10011 | 34151 ft | 443 kts | 280° |
| 2026-04-24 10:21 | 48.02813 | 13.00818 | 34144 ft | 443 kts | 280° |
| 2026-04-24 10:21 | 48.03484 | 12.91631 | 34144 ft | 442 kts | 284° |
| 2026-04-24 10:22 | 48.05384 | 12.83093 | 34148 ft | 432 kts | 300° |
| 2026-04-24 10:22 | 48.08114 | 12.75033 | 34146 ft | 432 kts | 301° |
| 2026-04-24 10:23 | 48.10824 | 12.67058 | 34146 ft | 432 kts | 301° |
| 2026-04-24 10:23 | 48.13537 | 12.58977 | 34146 ft | 432 kts | 301° |
| 2026-04-24 10:24 | 48.16217 | 12.50935 | 34122 ft | 432 kts | 301° |
| 2026-04-24 10:24 | 48.17554 | 12.46907 | 33860 ft | 430 kts | 301° |
| 2026-04-24 10:24 | 48.18884 | 12.42889 | 33596 ft | 428 kts | 300° |
| 2026-04-24 10:24 | 48.20222 | 12.38841 | 33329 ft | 426 kts | 301° |